createdAt,value
2022-08-04T00:01:34.432Z,6.82
2022-08-04T00:04:04.959Z,7.60
2022-08-04T00:06:45.141Z,8.43
2022-08-04T00:09:18.220Z,8.13
2022-08-04T00:11:47.776Z,7.32
2022-08-04T00:14:17.151Z,7.63
2022-08-04T00:16:44.728Z,7.63
2022-08-04T00:19:14.229Z,7.50
2022-08-04T00:21:44.455Z,7.03
2022-08-04T00:24:11.606Z,7.82
2022-08-04T00:26:37.079Z,7.90
2022-08-04T00:29:01.704Z,7.53
2022-08-04T00:31:53.944Z,7.60
2022-08-04T00:34:13.682Z,7.47
2022-08-04T00:36:37.480Z,7.65
2022-08-04T00:39:01.934Z,7.20
2022-08-04T00:41:56.209Z,8.15
2022-08-04T00:44:39.405Z,8.00
2022-08-04T00:47:17.662Z,7.55
2022-08-04T00:50:06.894Z,7.85
2022-08-04T00:52:42.608Z,7.95
2022-08-04T00:55:25.111Z,8.05
2022-08-04T00:58:22.536Z,8.00
2022-08-04T01:00:56.413Z,7.45
2022-08-04T01:03:28.331Z,7.28
2022-08-04T01:06:08.006Z,7.65
2022-08-04T01:08:53.535Z,8.07
2022-08-04T01:11:33.593Z,8.20
2022-08-04T01:14:33.835Z,7.93
2022-08-04T01:17:08.347Z,7.82
2022-08-04T01:20:04.012Z,8.55
2022-08-04T01:23:29.174Z,8.10
2022-08-04T01:26:57.629Z,7.95
2022-08-04T01:29:29.310Z,6.93
2022-08-04T01:32:09.188Z,7.93
2022-08-04T01:34:37.923Z,8.30
2022-08-04T01:37:10.313Z,7.78
2022-08-04T01:39:42.804Z,8.23
2022-08-04T01:42:09.735Z,8.00
2022-08-04T01:44:37.175Z,7.68
2022-08-04T01:47:03.108Z,8.77
2022-08-04T01:49:40.210Z,8.50
2022-08-04T01:52:05.432Z,8.48
2022-08-04T01:54:30.860Z,8.80
2022-08-04T01:56:56.381Z,8.85
2022-08-04T01:59:21.844Z,8.07
2022-08-04T02:01:47.361Z,8.15
2022-08-04T02:04:21.359Z,9.13
2022-08-04T02:07:02.892Z,8.95
2022-08-04T02:09:35.416Z,8.70
2022-08-04T02:12:27.994Z,8.10
2022-08-04T02:14:59.988Z,8.57
2022-08-04T02:17:32.469Z,8.23
2022-08-04T02:20:10.623Z,8.55
2022-08-04T02:22:40.383Z,8.30
2022-08-04T02:25:09.561Z,8.50
2022-08-04T02:28:18.209Z,8.48
2022-08-04T02:30:53.335Z,8.40
2022-08-04T02:33:30.692Z,9.10
2022-08-04T02:36:02.418Z,8.70
2022-08-04T02:38:44.589Z,8.75
2022-08-04T02:41:11.400Z,8.90
2022-08-04T02:43:50.848Z,7.80
2022-08-04T02:46:19.840Z,7.13
2022-08-04T02:48:48.011Z,8.65
2022-08-04T02:51:15.022Z,8.43
2022-08-04T02:53:39.301Z,7.95
2022-08-04T02:56:04.257Z,8.27
2022-08-04T02:58:31.558Z,8.93
2022-08-04T03:00:55.337Z,8.35
2022-08-04T03:03:32.651Z,8.40
2022-08-04T03:06:48.799Z,8.30
2022-08-04T03:09:38.719Z,8.40
2022-08-04T03:12:29.353Z,7.65
2022-08-04T03:15:33.446Z,8.00
2022-08-04T03:18:32.763Z,8.25
2022-08-04T03:21:34.751Z,8.95
2022-08-04T03:24:53.780Z,7.97
2022-08-04T03:28:10.787Z,8.52
2022-08-04T03:30:57.973Z,8.90
2022-08-04T03:33:54.219Z,8.55
2022-08-04T03:36:48.463Z,8.80
2022-08-04T03:40:08.925Z,8.98
2022-08-04T03:43:05.264Z,9.30
2022-08-04T03:46:11.402Z,9.18
2022-08-04T03:49:37.107Z,12.45
2022-08-04T03:52:32.355Z,8.98
2022-08-04T03:55:44.007Z,10.13
2022-08-04T03:58:44.947Z,15.68
2022-08-04T04:01:27.079Z,28.55
2022-08-04T04:04:23.442Z,13.70
2022-08-04T04:07:27.196Z,10.55
2022-08-04T04:10:39.804Z,11.23
2022-08-04T04:13:50.448Z,9.10
2022-08-04T04:16:48.940Z,10.00
2022-08-04T04:19:34.213Z,9.40
2022-08-04T04:22:25.047Z,9.07
2022-08-04T04:25:10.063Z,8.68
2022-08-04T04:27:50.442Z,9.00
2022-08-04T04:30:20.701Z,8.80
2022-08-04T04:33:07.892Z,8.75
2022-08-04T04:35:40.117Z,8.77
2022-08-04T04:38:35.965Z,10.10
2022-08-04T04:41:34.091Z,8.07
2022-08-04T04:44:45.624Z,8.80
2022-08-04T04:47:43.094Z,8.45
2022-08-04T04:50:14.556Z,8.55
2022-08-04T04:52:43.551Z,9.10
2022-08-04T04:55:17.321Z,8.77
2022-08-04T04:57:53.853Z,8.70
2022-08-04T05:00:20.027Z,9.13
2022-08-04T05:03:17.534Z,8.88
2022-08-04T05:06:38.436Z,8.02
2022-08-04T05:09:17.163Z,7.90
2022-08-04T05:14:26.362Z,8.60
2022-08-04T05:15:12.233Z,8.43
2022-08-04T05:17:41.344Z,8.35
2022-08-04T05:20:10.418Z,8.63
2022-08-04T05:22:41.306Z,7.97
2022-08-04T05:25:15.910Z,8.00
2022-08-04T05:27:47.136Z,8.20
2022-08-04T05:30:14.271Z,8.30
2022-08-04T05:32:46.979Z,8.23
2022-08-04T05:35:47.858Z,7.88
2022-08-04T05:38:04.868Z,7.88
2022-08-04T05:40:28.740Z,8.40
2022-08-04T05:42:55.327Z,8.38
2022-08-04T05:45:21.969Z,7.82
2022-08-04T05:47:46.969Z,7.95
2022-08-04T05:50:11.122Z,8.13
2022-08-04T05:52:37.799Z,9.32
2022-08-04T05:55:03.187Z,8.43
2022-08-04T05:57:27.688Z,8.95
2022-08-04T05:59:53.766Z,8.48
2022-08-04T06:02:19.949Z,8.13
2022-08-04T06:04:46.891Z,8.00
2022-08-04T06:07:11.719Z,8.32
2022-08-04T06:09:35.900Z,7.45
2022-08-04T06:12:04.891Z,7.82
2022-08-04T06:14:34.580Z,6.75
2022-08-04T06:16:59.536Z,7.93
2022-08-04T06:20:02.379Z,7.50
2022-08-04T06:22:13.813Z,7.22
2022-08-04T06:24:39.234Z,6.63
2022-08-04T06:27:06.349Z,6.50
2022-08-04T06:29:36.256Z,6.45
2022-08-04T06:32:29.490Z,6.00
2022-08-04T06:34:49.079Z,6.75
2022-08-04T06:37:24.105Z,6.40
2022-08-04T06:39:58.136Z,5.80
2022-08-04T06:42:24.536Z,5.63
2022-08-04T06:44:52.505Z,5.78
2022-08-04T06:47:19.548Z,5.78
2022-08-04T06:51:23.329Z,6.00
2022-08-04T06:52:29.758Z,6.18
2022-08-04T06:54:55.745Z,6.15
2022-08-04T06:57:23.614Z,6.00
2022-08-04T06:59:52.197Z,5.40
2022-08-04T07:02:18.889Z,5.97
2022-08-04T07:04:43.150Z,5.07
2022-08-04T07:07:07.120Z,5.40
2022-08-04T07:09:33.039Z,5.00
2022-08-04T07:11:57.083Z,4.70
2022-08-04T07:14:21.653Z,5.10
2022-08-04T07:16:47.578Z,4.75
2022-08-04T07:19:14.732Z,5.22
2022-08-04T07:21:41.671Z,5.10
2022-08-04T07:24:33.104Z,4.93
2022-08-04T07:26:57.473Z,4.63
2022-08-04T07:29:21.258Z,4.40
2022-08-04T07:31:45.478Z,4.57
2022-08-04T07:34:11.518Z,4.63
2022-08-04T07:36:50.459Z,4.85
2022-08-04T07:39:26.402Z,5.05
2022-08-04T07:41:55.720Z,4.30
2022-08-04T07:44:19.972Z,4.78
2022-08-04T07:46:44.736Z,4.32
2022-08-04T07:49:09.215Z,4.93
2022-08-04T07:51:36.445Z,4.63
2022-08-04T07:54:03.443Z,4.75
2022-08-04T07:56:28.078Z,4.70
2022-08-04T07:58:53.299Z,4.80
2022-08-04T08:01:17.561Z,5.15
2022-08-04T08:03:42.769Z,5.03
2022-08-04T08:06:17.295Z,4.60
2022-08-04T08:08:50.864Z,4.53
2022-08-04T08:11:14.833Z,4.78
2022-08-04T08:13:39.229Z,4.80
2022-08-04T08:16:05.321Z,4.35
2022-08-04T08:18:29.136Z,4.30
2022-08-04T08:20:53.787Z,4.35
2022-08-04T08:23:17.649Z,4.07
2022-08-04T08:25:45.792Z,4.47
2022-08-04T08:28:09.865Z,4.20
2022-08-04T08:30:34.956Z,4.05
2022-08-04T08:33:06.409Z,4.78
2022-08-04T08:35:39.841Z,4.00
2022-08-04T08:38:24.428Z,3.58
2022-08-04T08:40:55.445Z,3.65
2022-08-04T08:44:05.824Z,3.40
2022-08-04T08:46:56.981Z,3.30
2022-08-04T08:50:02.680Z,3.78
2022-08-04T08:52:56.644Z,4.13
2022-08-04T08:55:41.300Z,4.03
2022-08-04T08:58:47.327Z,4.07
2022-08-04T09:01:27.588Z,4.20
2022-08-04T09:04:57.633Z,4.72
2022-08-04T09:07:50.972Z,3.92
2022-08-04T09:10:20.988Z,3.30
2022-08-04T09:12:54.319Z,3.70
2022-08-04T09:15:29.808Z,3.30
2022-08-04T09:18:01.102Z,3.20
2022-08-04T09:20:33.329Z,3.20
2022-08-04T09:23:14.868Z,3.50
2022-08-04T09:25:49.775Z,2.80
2022-08-04T09:28:52.459Z,3.42
2022-08-04T09:31:14.394Z,3.30
2022-08-04T09:33:49.884Z,3.03
2022-08-04T09:36:29.993Z,2.92
2022-08-04T09:39:09.719Z,3.80
2022-08-04T09:41:49.677Z,3.70
2022-08-04T09:44:51.334Z,3.45
2022-08-04T09:47:17.946Z,3.75
2022-08-04T09:49:51.780Z,3.15
2022-08-04T09:52:29.763Z,3.10
2022-08-04T09:55:07.067Z,3.30
2022-08-04T09:57:47.368Z,3.22
2022-08-04T10:00:16.857Z,3.10
2022-08-04T10:02:45.833Z,3.10
2022-08-04T10:05:16.389Z,3.50
2022-08-04T10:08:16.089Z,3.10
2022-08-04T10:10:53.678Z,3.30
2022-08-04T10:13:34.893Z,2.88
2022-08-04T10:16:13.405Z,2.90
2022-08-04T10:18:54.711Z,2.92
2022-08-04T10:21:26.952Z,3.00
2022-08-04T10:24:25.292Z,3.08
2022-08-04T10:26:58.477Z,2.90
2022-08-04T10:29:29.856Z,2.60
2022-08-04T10:32:02.203Z,2.50
2022-08-04T10:34:31.231Z,2.85
2022-08-04T10:37:03.806Z,2.50
2022-08-04T10:39:43.793Z,2.85
2022-08-04T10:42:18.297Z,3.10
2022-08-04T10:44:59.585Z,2.83
2022-08-04T10:47:28.676Z,3.30
2022-08-04T10:49:57.653Z,3.25
2022-08-04T10:52:33.858Z,3.00
2022-08-04T10:55:07.153Z,3.22
2022-08-04T10:57:39.120Z,3.22
2022-08-04T11:00:07.292Z,3.20
2022-08-04T11:02:41.548Z,2.95
2022-08-04T11:05:19.300Z,3.10
2022-08-04T11:07:47.341Z,3.20
2022-08-04T11:10:11.261Z,3.35
2022-08-04T11:12:37.275Z,3.22
2022-08-04T11:15:06.435Z,3.42
2022-08-04T11:17:36.214Z,3.05
2022-08-04T11:20:34.181Z,2.70
2022-08-04T11:23:05.652Z,2.72
2022-08-04T11:25:38.522Z,2.60
2022-08-04T11:28:13.267Z,2.90
2022-08-04T11:30:45.756Z,2.70
2022-08-04T11:33:23.612Z,2.40
2022-08-04T11:35:53.814Z,2.60
2022-08-04T11:38:27.967Z,2.67
2022-08-04T11:41:03.126Z,2.53
2022-08-04T11:44:00.933Z,2.88
2022-08-04T11:46:28.900Z,3.35
2022-08-04T11:49:03.438Z,2.97
2022-08-04T11:51:29.899Z,2.70
2022-08-04T11:53:53.653Z,2.88
2022-08-04T11:56:37.194Z,2.85
2022-08-04T11:59:05.250Z,2.70
2022-08-04T12:01:43.823Z,2.58
2022-08-04T12:04:15.628Z,2.58
2022-08-04T12:06:56.866Z,2.60
2022-08-04T12:09:36.222Z,3.20
2022-08-04T12:12:14.308Z,2.90
2022-08-04T12:14:50.752Z,3.10
2022-08-04T12:17:23.969Z,3.20
2022-08-04T12:20:05.200Z,3.35
2022-08-04T12:22:48.357Z,3.00
2022-08-04T12:25:19.553Z,2.90
2022-08-04T12:27:51.341Z,3.08
2022-08-04T12:31:00.427Z,4.00
2022-08-04T12:33:08.597Z,3.70
2022-08-04T12:35:40.655Z,4.57
2022-08-04T12:38:28.236Z,5.78
2022-08-04T12:40:56.981Z,5.72
2022-08-04T12:43:25.984Z,5.95
2022-08-04T12:45:56.835Z,7.88
2022-08-04T12:48:21.767Z,6.43
2022-08-04T12:50:49.715Z,7.00
2022-08-04T12:53:19.538Z,6.25
2022-08-04T12:56:01.389Z,4.90
2022-08-04T12:58:42.000Z,3.70
2022-08-04T13:02:09.699Z,3.10
2022-08-04T13:04:02.222Z,3.05
2022-08-04T13:06:28.977Z,3.72
2022-08-04T13:08:53.189Z,4.88
2022-08-04T13:11:19.137Z,5.63
2022-08-04T13:13:45.771Z,4.82
2022-08-04T13:16:14.331Z,3.08
2022-08-04T13:18:42.819Z,3.88
2022-08-04T13:21:20.570Z,3.78
2022-08-04T13:24:19.627Z,4.00
2022-08-04T13:26:42.376Z,3.50
2022-08-04T13:29:17.025Z,3.17
2022-08-04T13:31:52.954Z,3.20
2022-08-04T13:34:19.347Z,5.18
2022-08-04T13:36:44.953Z,6.93
2022-08-04T13:39:17.451Z,8.38
2022-08-04T13:41:56.971Z,10.85
2022-08-04T13:44:27.844Z,11.00
2022-08-04T13:46:57.940Z,9.35
2022-08-04T13:49:42.766Z,6.43
2022-08-04T13:52:11.060Z,4.90
2022-08-04T13:54:42.454Z,4.38
2022-08-04T13:57:14.150Z,4.85
2022-08-04T13:59:40.119Z,4.30
2022-08-04T14:02:11.348Z,3.80
2022-08-04T14:04:42.272Z,3.40
2022-08-04T14:07:17.746Z,2.42
2022-08-04T14:10:03.442Z,2.80
2022-08-04T14:12:45.699Z,2.13
2022-08-04T14:16:01.206Z,2.00
2022-08-04T14:18:22.570Z,1.77
2022-08-04T14:21:09.495Z,4.40
2022-08-04T14:23:47.735Z,6.28
2022-08-04T14:26:31.449Z,4.50
2022-08-04T14:29:28.463Z,4.63
2022-08-04T14:31:57.776Z,4.93
2022-08-04T14:34:30.054Z,3.70
2022-08-04T14:37:16.981Z,2.70
2022-08-04T14:39:40.496Z,2.70
2022-08-04T14:42:04.773Z,3.15
2022-08-04T14:44:28.704Z,2.72
2022-08-04T14:46:54.481Z,2.50
2022-08-04T14:49:18.251Z,2.60
2022-08-04T14:51:45.452Z,2.28
2022-08-04T14:54:15.806Z,2.45
2022-08-04T14:56:47.200Z,2.22
2022-08-04T14:59:12.912Z,3.70
2022-08-04T15:01:37.843Z,5.40
2022-08-04T15:04:04.580Z,4.40
2022-08-04T15:06:30.537Z,3.58
2022-08-04T15:08:58.578Z,4.18
2022-08-04T15:11:24.391Z,3.30
2022-08-04T15:13:48.525Z,3.22
2022-08-04T15:16:13.971Z,3.47
2022-08-04T15:18:39.388Z,4.45
2022-08-04T15:21:04.126Z,3.65
2022-08-04T15:23:38.428Z,3.67
2022-08-04T15:26:07.994Z,3.63
2022-08-04T15:28:34.663Z,3.13
2022-08-04T15:30:59.319Z,2.67
2022-08-04T15:33:33.566Z,2.45
2022-08-04T15:36:14.445Z,2.53
2022-08-04T15:38:43.722Z,2.10
2022-08-04T15:41:15.089Z,2.20
2022-08-04T15:44:00.364Z,2.00
2022-08-04T15:47:11.548Z,2.30
2022-08-04T15:49:35.420Z,2.50
2022-08-04T15:52:01.890Z,2.17
2022-08-04T15:54:27.833Z,2.25
2022-08-04T15:57:01.976Z,2.15
2022-08-04T16:00:08.742Z,2.20
2022-08-04T16:02:45.503Z,2.40
2022-08-04T16:05:43.371Z,2.70
2022-08-04T16:08:18.132Z,3.10
2022-08-04T16:10:44.778Z,2.63
2022-08-04T16:13:13.931Z,2.70
2022-08-04T16:15:46.924Z,2.40
2022-08-04T16:18:25.657Z,2.47
2022-08-04T16:20:52.041Z,2.63
2022-08-04T16:23:59.247Z,2.55
2022-08-04T16:26:54.694Z,3.38
2022-08-04T16:29:46.884Z,3.08
2022-08-04T16:32:17.085Z,2.83
2022-08-04T16:34:54.746Z,3.03
2022-08-04T16:37:21.078Z,2.65
2022-08-04T16:39:50.019Z,2.65
2022-08-04T16:42:36.296Z,2.42
2022-08-04T16:45:13.810Z,2.25
2022-08-04T16:48:04.299Z,2.67
2022-08-04T16:50:28.228Z,2.20
2022-08-04T16:52:54.000Z,2.20
2022-08-04T16:55:19.857Z,2.08
2022-08-04T16:57:47.524Z,2.15
2022-08-04T17:00:13.920Z,2.30
2022-08-04T17:02:38.202Z,2.30
2022-08-04T17:05:07.498Z,1.90
2022-08-04T17:08:07.253Z,2.30
2022-08-04T17:10:39.969Z,2.08
2022-08-04T17:14:03.414Z,2.22
2022-08-04T17:16:13.650Z,1.75
2022-08-04T17:18:45.280Z,1.95
2022-08-04T17:21:11.618Z,2.17
2022-08-04T17:24:13.041Z,2.30
2022-08-04T17:26:39.837Z,2.20
2022-08-04T17:29:05.584Z,2.10
2022-08-04T17:31:36.853Z,2.08
2022-08-04T17:34:04.003Z,2.30
2022-08-04T17:36:33.607Z,2.20
2022-08-04T17:39:01.197Z,2.40
2022-08-04T17:41:30.114Z,2.30
2022-08-04T17:44:04.720Z,3.28
2022-08-04T17:46:41.144Z,3.42
2022-08-04T17:49:11.099Z,3.03
2022-08-04T17:52:05.606Z,2.80
2022-08-04T17:54:36.678Z,2.50
2022-08-04T17:57:10.708Z,2.53
2022-08-04T17:59:52.058Z,2.70
2022-08-04T18:02:33.348Z,2.72
2022-08-04T18:05:08.026Z,2.92
2022-08-04T18:08:35.606Z,3.88
2022-08-04T18:10:27.626Z,6.80
2022-08-04T18:12:54.587Z,5.85
2022-08-04T18:15:25.612Z,6.18
2022-08-04T18:18:23.349Z,5.40
2022-08-04T18:20:50.034Z,4.53
2022-08-04T18:23:16.786Z,4.40
2022-08-04T18:25:51.403Z,3.80
2022-08-04T18:28:20.771Z,4.28
2022-08-04T18:30:55.657Z,4.50
2022-08-04T18:33:41.032Z,5.30
2022-08-04T18:36:33.571Z,5.10
2022-08-04T18:38:55.538Z,5.05
2022-08-04T18:41:19.959Z,4.70
2022-08-04T18:43:43.708Z,4.55
2022-08-04T18:46:19.807Z,4.20
2022-08-04T18:48:52.477Z,4.10
2022-08-04T18:51:23.838Z,4.07
2022-08-04T18:53:55.194Z,4.22
2022-08-04T18:59:10.220Z,4.00
2022-08-04T19:02:16.047Z,4.03
2022-08-04T19:04:32.967Z,4.15
2022-08-04T19:07:23.434Z,4.22
2022-08-04T19:09:52.104Z,4.00
2022-08-04T19:12:17.529Z,4.25
2022-08-04T19:14:57.791Z,4.07
2022-08-04T19:17:52.510Z,5.25
2022-08-04T19:20:16.130Z,4.40
2022-08-04T19:24:28.648Z,4.50
2022-08-04T19:26:02.479Z,5.25
2022-08-04T19:28:17.369Z,4.82
2022-08-04T19:30:41.449Z,4.53
2022-08-04T19:33:05.902Z,4.03
2022-08-04T19:35:31.592Z,4.10
2022-08-04T19:38:11.029Z,4.20
2022-08-04T19:40:42.140Z,4.70
2022-08-04T19:43:16.484Z,4.57
2022-08-04T19:45:44.841Z,4.13
2022-08-04T19:48:22.048Z,4.28
2022-08-04T19:50:48.309Z,4.32
2022-08-04T19:53:19.368Z,4.57
2022-08-04T19:55:43.800Z,4.20
2022-08-04T19:58:13.926Z,4.32
2022-08-04T20:00:39.420Z,4.18
2022-08-04T20:03:03.535Z,4.63
2022-08-04T20:05:54.489Z,4.55
2022-08-04T20:08:18.636Z,4.50
2022-08-04T20:10:47.028Z,4.55
2022-08-04T20:13:15.872Z,4.30
2022-08-04T20:15:39.605Z,4.43
2022-08-04T20:18:35.926Z,4.35
2022-08-04T20:21:00.659Z,4.50
2022-08-04T20:23:47.706Z,4.28
2022-08-04T20:26:09.611Z,4.35
2022-08-04T20:28:36.818Z,4.40
2022-08-04T20:31:00.646Z,4.90
2022-08-04T20:33:24.325Z,4.43
2022-08-04T20:36:05.022Z,4.25
2022-08-04T20:38:33.778Z,4.40
2022-08-04T20:40:58.985Z,4.75
2022-08-04T20:43:25.037Z,5.80
2022-08-04T20:45:57.010Z,9.27
2022-08-04T20:48:23.173Z,8.77
2022-08-04T20:50:49.826Z,7.18
2022-08-04T20:53:16.822Z,6.90
2022-08-04T20:55:55.728Z,7.88
2022-08-04T20:58:19.944Z,7.80
2022-08-04T21:00:53.292Z,8.50
2022-08-04T21:03:17.104Z,8.65
2022-08-04T21:05:40.866Z,7.38
2022-08-04T21:08:05.425Z,8.55
2022-08-04T21:10:31.108Z,8.43
2022-08-04T21:12:56.621Z,8.25
2022-08-04T21:15:25.140Z,8.38
2022-08-04T21:17:58.776Z,7.35
2022-08-04T21:20:28.032Z,8.48
2022-08-04T21:22:52.148Z,8.50
2022-08-04T21:25:16.612Z,8.50
2022-08-04T21:27:44.911Z,8.90
2022-08-04T21:30:25.390Z,8.60
2022-08-04T21:32:50.077Z,8.07
2022-08-04T21:35:16.151Z,7.95
2022-08-04T21:37:58.083Z,9.45
2022-08-04T21:40:30.706Z,8.63
2022-08-04T21:43:00.600Z,8.68
2022-08-04T21:45:35.981Z,9.27
2022-08-04T21:48:00.434Z,8.65
2022-08-04T21:50:25.032Z,7.93
2022-08-04T21:52:54.448Z,8.05
2022-08-04T21:55:19.470Z,8.90
2022-08-04T21:57:43.355Z,8.68
2022-08-04T22:00:18.620Z,8.60
2022-08-04T22:02:44.985Z,8.55
2022-08-04T22:05:09.312Z,8.70
2022-08-04T22:07:50.204Z,8.90
2022-08-04T22:10:15.369Z,8.77
2022-08-04T22:12:46.383Z,8.30
2022-08-04T22:15:22.758Z,8.52
2022-08-04T22:18:00.839Z,8.88
2022-08-04T22:20:28.407Z,8.50
2022-08-04T22:22:54.190Z,8.27
2022-08-04T22:25:19.994Z,8.27
2022-08-04T22:28:03.694Z,8.48
2022-08-04T22:30:32.911Z,8.82
2022-08-04T22:32:57.212Z,8.85
2022-08-04T22:35:36.189Z,8.43
2022-08-04T22:38:20.631Z,9.23
2022-08-04T22:40:51.007Z,8.25
2022-08-04T22:43:32.779Z,8.70
2022-08-04T22:45:58.075Z,8.80
2022-08-04T22:48:22.312Z,9.05
2022-08-04T22:50:47.796Z,8.75
2022-08-04T22:53:11.570Z,8.77
2022-08-04T22:56:06.930Z,8.32
2022-08-04T22:58:28.606Z,8.95
2022-08-04T23:00:54.030Z,8.70
2022-08-04T23:03:37.562Z,8.52
2022-08-04T23:06:10.835Z,8.52
2022-08-04T23:08:36.398Z,9.13
2022-08-04T23:11:00.200Z,8.70
2022-08-04T23:13:24.705Z,8.38
2022-08-04T23:15:48.471Z,8.20
2022-08-04T23:18:12.265Z,8.48
2022-08-04T23:20:39.291Z,8.18
2022-08-04T23:23:15.085Z,8.93
2022-08-04T23:26:08.596Z,8.98
2022-08-04T23:28:22.825Z,8.02
2022-08-04T23:30:48.787Z,8.45
2022-08-04T23:33:12.565Z,8.77
2022-08-04T23:35:39.153Z,8.07
2022-08-04T23:38:30.953Z,8.20
2022-08-04T23:40:50.525Z,7.85
2022-08-04T23:43:17.906Z,8.02
2022-08-04T23:46:07.663Z,7.72
2022-08-04T23:48:25.818Z,8.32
2022-08-04T23:50:50.072Z,7.50
2022-08-04T23:53:18.595Z,8.13
2022-08-04T23:55:46.344Z,7.88
2022-08-04T23:58:18.560Z,7.53
